Time;durP1;ratioP1;P1;durP2;ratioP2;P2;SDS_P1;SDS_P2;PMS_P1;PMS_P2;Temp;Humidity;BMP_temperature;BMP_pressure;BME280_temperature;BME280_humidity;BME280_pressure;Samples;Min_cycle;Max_cycle;Signal;HPM_P1;HPM_P2
2021/08/01 00:02:55;;;;;;;1.17;0.70;;;14.60;84.50;;;;;;4630233;30;20066;-88
2021/08/01 00:05:20;;;;;;;0.70;0.70;;;14.70;84.60;;;;;;4579163;31;20135;-83
2021/08/01 00:07:47;;;;;;;0.70;0.70;;;14.50;84.30;;;;;;4607028;31;20151;-87
2021/08/01 00:10:13;;;;;;;0.77;0.73;;;14.60;84.40;;;;;;4666042;30;20058;-87
2021/08/01 00:12:40;;;;;;;0.88;0.70;;;14.70;84.40;;;;;;4667646;30;20065;-87
2021/08/01 00:15:08;;;;;;;0.70;0.70;;;14.50;84.30;;;;;;4654106;30;20042;-87
2021/08/01 00:17:34;;;;;;;0.93;0.80;;;14.60;84.40;;;;;;4661397;30;20135;-87
2021/08/01 00:20:00;;;;;;;0.93;0.80;;;14.60;84.40;;;;;;4734123;30;20217;-86
2021/08/01 00:22:26;;;;;;;0.60;0.57;;;14.60;84.50;;;;;;4704729;30;20036;-86
2021/08/01 00:24:52;;;;;;;1.00;0.85;;;14.60;84.60;;;;;;4704411;30;20044;-87
2021/08/01 00:27:18;;;;;;;0.63;0.55;;;14.60;84.60;;;;;;4701597;30;20085;-87
2021/08/01 00:29:43;;;;;;;0.98;0.80;;;14.60;84.60;;;;;;4736542;30;20056;-87
2021/08/01 00:32:09;;;;;;;0.80;0.75;;;14.60;84.60;;;;;;4722136;30;20446;-86
2021/08/01 00:34:35;;;;;;;0.70;0.70;;;14.60;84.60;;;;;;4722057;30;20673;-86
2021/08/01 00:37:01;;;;;;;0.70;0.70;;;14.60;84.60;;;;;;4707489;30;20084;-87
2021/08/01 00:39:28;;;;;;;0.77;0.60;;;14.60;84.60;;;;;;4736134;30;20127;-86
2021/08/01 00:41:55;;;;;;;1.25;1.00;;;14.60;84.70;;;;;;4746020;29;20039;-86
2021/08/01 00:44:21;;;;;;;1.20;0.95;;;14.50;84.70;;;;;;4774792;29;20054;-86
2021/08/01 00:46:47;;;;;;;1.92;1.05;;;14.60;84.80;;;;;;4774910;29;20050;-86
2021/08/01 00:49:13;;;;;;;1.95;1.25;;;14.50;84.90;;;;;;4775360;29;20057;-86
2021/08/01 00:51:39;;;;;;;1.38;0.98;;;14.60;84.90;;;;;;4775508;29;20106;-86
2021/08/01 00:54:05;;;;;;;0.85;0.73;;;14.60;84.80;;;;;;4754026;30;20047;-86
2021/08/01 00:56:31;;;;;;;1.05;0.80;;;14.60;84.80;;;;;;4753796;30;20039;-86
2021/08/01 00:58:57;;;;;;;1.25;0.98;;;14.60;84.70;;;;;;4724023;30;20430;-85
2021/08/01 01:01:28;;;;;;;1.10;1.00;;;14.60;84.70;;;;;;4724178;30;20056;-86
2021/08/01 01:04:29;;;;;;;1.52;1.10;;;14.70;84.80;;;;;;4724396;30;20043;-85
2021/08/01 01:07:16;;;;;;;0.68;0.63;;;14.70;84.90;;;;;;4753697;30;20036;-84
2021/08/01 01:09:51;;;;;;;1.38;1.00;;;14.70;84.80;;;;;;4739350;30;20415;-85
2021/08/01 01:12:20;;;;;;;0.80;0.80;;;14.70;84.80;;;;;;4723780;30;20586;-85
2021/08/01 01:14:52;;;;;;;1.15;0.88;;;14.70;84.70;;;;;;4738743;30;20046;-86
2021/08/01 01:17:23;;;;;;;0.93;0.80;;;14.80;84.80;;;;;;4738596;30;20071;-85
2021/08/01 01:20:29;;;;;;;0.93;0.77;;;14.70;84.70;;;;;;4738443;30;20082;-84
2021/08/01 01:23:25;;;;;;;1.35;0.93;;;14.60;84.70;;;;;;4731295;30;20503;-84
2021/08/01 01:26:08;;;;;;;1.38;1.00;;;14.70;84.80;;;;;;4799171;29;20035;-85
2021/08/01 01:29:05;;;;;;;1.63;1.00;;;14.60;84.80;;;;;;4805522;29;20062;-84
2021/08/01 01:31:41;;;;;;;1.40;1.00;;;14.70;84.90;;;;;;4775964;29;20097;-85
2021/08/01 01:34:25;;;;;;;1.42;1.15;;;14.70;84.90;;;;;;4774109;29;20437;-85
2021/08/01 01:36:53;;;;;;;1.60;1.08;;;14.70;84.90;;;;;;4776038;29;20403;-85
2021/08/01 01:39:22;;;;;;;1.17;1.08;;;14.70;84.90;;;;;;4788760;29;20044;-84
2021/08/01 01:41:50;;;;;;;1.20;1.00;;;14.60;84.90;;;;;;4773959;29;20089;-84
2021/08/01 01:44:17;;;;;;;1.27;0.98;;;14.60;84.90;;;;;;4789469;29;20031;-85
2021/08/01 01:46:44;;;;;;;1.33;1.02;;;14.70;85.10;;;;;;4788235;29;20117;-85
2021/08/01 01:49:11;;;;;;;0.85;0.82;;;14.70;85.10;;;;;;4774263;29;20076;-86
2021/08/01 01:51:38;;;;;;;1.48;1.05;;;14.60;85.10;;;;;;4773755;29;20038;-85
2021/08/01 01:54:06;;;;;;;0.88;0.82;;;14.60;85.10;;;;;;4773709;29;20395;-85
2021/08/01 01:56:34;;;;;;;2.03;0.90;;;14.70;85.30;;;;;;4774474;29;20039;-86
2021/08/01 01:59:01;;;;;;;1.65;1.08;;;14.60;85.20;;;;;;4773970;29;20104;-86
2021/08/01 02:01:27;;;;;;;0.98;0.88;;;14.70;85.30;;;;;;4787683;29;20119;-85
2021/08/01 02:03:53;;;;;;;1.00;0.90;;;14.60;85.20;;;;;;4774219;29;20066;-86
2021/08/01 02:06:19;;;;;;;1.30;1.00;;;14.60;85.30;;;;;;4773288;29;20134;-86
2021/08/01 02:09:03;;;;;;;1.30;0.90;;;14.60;85.40;;;;;;4788748;29;20078;-86
2021/08/01 02:11:36;;;;;;;1.08;0.85;;;14.50;85.50;;;;;;4786774;29;20035;-85
2021/08/01 02:14:08;;;;;;;2.20;1.17;;;14.50;85.60;;;;;;4774198;29;20486;-86
2021/08/01 02:16:38;;;;;;;1.10;0.57;;;14.50;85.70;;;;;;4772865;29;20039;-86
2021/08/01 02:19:08;;;;;;;1.70;1.05;;;14.50;85.70;;;;;;4759257;29;20035;-85
2021/08/01 02:21:37;;;;;;;1.08;0.98;;;14.40;85.70;;;;;;4774162;29;20126;-86
2021/08/01 02:24:05;;;;;;;1.50;1.10;;;14.50;85.90;;;;;;4788862;29;20398;-86
2021/08/01 02:26:33;;;;;;;1.25;1.08;;;14.50;85.80;;;;;;4758956;29;20050;-86
2021/08/01 02:28:59;;;;;;;1.77;1.08;;;14.50;85.80;;;;;;4774079;29;20106;-86
2021/08/01 02:31:27;;;;;;;2.55;1.40;;;14.50;85.80;;;;;;4804778;29;20115;-85
2021/08/01 02:33:53;;;;;;;1.20;1.05;;;14.50;85.80;;;;;;4772786;29;20043;-85
2021/08/01 02:36:20;;;;;;;2.03;1.23;;;14.50;85.80;;;;;;4788811;29;20092;-85
2021/08/01 02:38:47;;;;;;;1.23;1.00;;;14.50;85.80;;;;;;4774437;29;20046;-85
2021/08/01 02:41:19;;;;;;;1.60;1.10;;;14.50;85.90;;;;;;4804867;29;20043;-85
2021/08/01 02:43:47;;;;;;;1.70;1.25;;;14.40;85.80;;;;;;4788359;29;20074;-84
2021/08/01 02:46:16;;;;;;;1.20;1.10;;;14.50;85.90;;;;;;4759461;29;20046;-85
2021/08/01 02:48:42;;;;;;;2.00;1.08;;;14.50;85.80;;;;;;4804911;29;20039;-85
2021/08/01 02:51:08;;;;;;;1.88;1.40;;;14.60;85.80;;;;;;4757986;29;20028;-85
2021/08/01 02:53:42;;;;;;;1.50;1.30;;;14.70;85.90;;;;;;4787990;29;20487;-85
2021/08/01 02:56:10;;;;;;;1.98;1.20;;;14.70;85.80;;;;;;4787408;29;20043;-85
2021/08/01 02:58:38;;;;;;;1.40;1.08;;;14.60;85.70;;;;;;4788173;29;20042;-86
2021/08/01 03:01:04;;;;;;;1.42;1.13;;;14.70;85.70;;;;;;4787687;29;20039;-85
2021/08/01 03:03:30;;;;;;;1.30;1.13;;;14.70;85.70;;;;;;4758462;29;20482;-84
2021/08/01 03:05:56;;;;;;;2.70;1.55;;;14.70;85.70;;;;;;4787812;29;20506;-84
2021/08/01 03:08:22;;;;;;;2.53;1.45;;;14.70;85.70;;;;;;4772176;29;20044;-85
2021/08/01 03:10:49;;;;;;;1.52;1.20;;;14.80;85.70;;;;;;4773288;29;20188;-85
2021/08/01 03:13:14;;;;;;;2.53;1.58;;;14.90;85.80;;;;;;4758588;29;20402;-85
2021/08/01 03:15:43;;;;;;;1.52;1.25;;;14.80;85.80;;;;;;4771662;29;20046;-85
2021/08/01 03:18:09;;;;;;;2.42;1.52;;;14.80;85.80;;;;;;4772742;29;20032;-86
2021/08/01 03:20:35;;;;;;;1.83;1.38;;;14.80;85.80;;;;;;4756595;29;20130;-85
2021/08/01 03:23:01;;;;;;;2.92;1.52;;;14.80;85.80;;;;;;4774574;29;20133;-85
2021/08/01 03:25:26;;;;;;;2.05;1.50;;;14.80;85.80;;;;;;4776492;29;20099;-85
2021/08/01 03:27:52;;;;;;;1.63;1.30;;;14.70;85.80;;;;;;4791325;29;20513;-85
2021/08/01 03:30:18;;;;;;;1.90;1.42;;;14.90;86.00;;;;;;4760959;29;20438;-84
2021/08/01 03:32:44;;;;;;;1.48;1.10;;;14.80;86.00;;;;;;4760772;29;20071;-85
2021/08/01 03:35:10;;;;;;;1.75;1.40;;;14.90;86.10;;;;;;4776293;29;20035;-86
2021/08/01 03:37:36;;;;;;;2.28;1.35;;;14.90;86.10;;;;;;4775780;29;20070;-85
2021/08/01 03:40:02;;;;;;;1.20;1.10;;;14.90;86.10;;;;;;4761224;29;20050;-86
2021/08/01 03:42:28;;;;;;;1.88;1.20;;;14.90;86.20;;;;;;4775456;29;20544;-85
2021/08/01 03:44:54;;;;;;;1.73;1.30;;;14.90;86.10;;;;;;4790261;29;20051;-85
2021/08/01 03:47:19;;;;;;;1.92;1.20;;;14.90;86.20;;;;;;4775715;29;20043;-85
2021/08/01 03:49:47;;;;;;;2.95;1.27;;;15.00;86.20;;;;;;4807089;29;20106;-85
2021/08/01 03:52:13;;;;;;;1.67;1.33;;;14.90;86.20;;;;;;4776415;29;20117;-84
2021/08/01 03:54:39;;;;;;;1.30;1.20;;;14.90;86.20;;;;;;4775638;29;20054;-86
2021/08/01 03:57:05;;;;;;;1.92;1.40;;;15.00;86.30;;;;;;4774890;29;20095;-86
2021/08/01 03:59:35;;;;;;;2.13;1.45;;;15.00;86.40;;;;;;4775734;29;20043;-85
2021/08/01 04:02:02;;;;;;;1.55;1.25;;;14.90;86.40;;;;;;4807324;29;20042;-85
2021/08/01 04:04:27;;;;;;;1.63;1.40;;;14.90;86.40;;;;;;4791265;29;20466;-85
2021/08/01 04:06:54;;;;;;;1.40;1.20;;;15.00;86.50;;;;;;4807072;29;20054;-86
2021/08/01 04:09:20;;;;;;;1.90;1.40;;;15.00;86.50;;;;;;4775825;29;20386;-85
2021/08/01 04:11:46;;;;;;;1.90;1.35;;;15.00;86.50;;;;;;4774856;29;20104;-86
2021/08/01 04:14:12;;;;;;;1.85;1.40;;;15.00;86.50;;;;;;4775732;29;20486;-85
2021/08/01 04:16:38;;;;;;;2.00;1.48;;;14.90;86.40;;;;;;4760800;29;20031;-84
2021/08/01 04:19:08;;;;;;;1.73;1.10;;;15.00;86.50;;;;;;4760183;29;20055;-85
2021/08/01 04:21:34;;;;;;;1.60;1.15;;;15.00;86.60;;;;;;4790010;29;20078;-85
2021/08/01 04:24:00;;;;;;;3.10;1.30;;;15.10;86.60;;;;;;4775845;29;20062;-87
2021/08/01 04:26:26;;;;;;;1.95;1.33;;;15.10;86.60;;;;;;4759394;29;20406;-85
2021/08/01 04:28:52;;;;;;;1.52;1.17;;;15.10;86.60;;;;;;4775384;29;20053;-87
2021/08/01 04:31:18;;;;;;;1.85;1.20;;;15.10;86.60;;;;;;4760491;29;20122;-86
2021/08/01 04:33:43;;;;;;;2.15;1.10;;;15.00;86.60;;;;;;4773703;29;20104;-85
2021/08/01 04:36:09;;;;;;;1.80;1.30;;;15.10;86.60;;;;;;4775488;29;20039;-85
2021/08/01 04:38:35;;;;;;;1.58;1.30;;;15.10;86.60;;;;;;4775026;29;20047;-86
2021/08/01 04:41:00;;;;;;;1.85;1.40;;;15.10;86.60;;;;;;4775019;29;20042;-85
2021/08/01 04:43:26;;;;;;;2.00;1.38;;;15.10;86.70;;;;;;4806478;29;20049;-85
2021/08/01 04:45:52;;;;;;;1.70;1.10;;;15.10;86.70;;;;;;4760422;29;20448;-86
2021/08/01 04:48:17;;;;;;;1.42;1.20;;;15.20;86.70;;;;;;4759721;29;20624;-87
2021/08/01 04:50:43;;;;;;;2.10;1.30;;;15.20;86.70;;;;;;4773953;29;20403;-85
2021/08/01 04:53:09;;;;;;;2.17;1.42;;;15.20;86.70;;;;;;4760424;29;20050;-85
2021/08/01 04:55:35;;;;;;;1.80;1.40;;;15.10;86.70;;;;;;4774537;29;20126;-85
2021/08/01 04:58:03;;;;;;;2.13;1.48;;;15.20;86.70;;;;;;4788881;29;20093;-85
2021/08/01 05:00:28;;;;;;;1.65;1.23;;;15.30;86.70;;;;;;4775264;29;20043;-85
2021/08/01 05:02:57;;;;;;;1.38;1.15;;;15.20;86.70;;;;;;4760313;29;20043;-87
2021/08/01 05:05:23;;;;;;;1.70;1.30;;;15.20;86.70;;;;;;4775277;29;20140;-87
2021/08/01 05:07:49;;;;;;;1.90;1.25;;;15.30;86.80;;;;;;4806678;29;20097;-86
2021/08/01 05:10:14;;;;;;;1.48;1.10;;;15.30;86.80;;;;;;4790094;29;20444;-87
2021/08/01 05:12:40;;;;;;;1.77;1.20;;;15.30;86.80;;;;;;4759598;29;20395;-86
2021/08/01 05:15:06;;;;;;;2.75;1.35;;;15.30;86.70;;;;;;4774064;29;20484;-86
2021/08/01 05:17:32;;;;;;;2.60;1.30;;;15.30;86.70;;;;;;4759795;29;20169;-86
2021/08/01 05:19:58;;;;;;;2.03;1.30;;;15.40;86.70;;;;;;4760139;29;20527;-87
2021/08/01 05:22:23;;;;;;;2.15;1.42;;;15.40;86.80;;;;;;4787999;29;20039;-86
2021/08/01 05:24:49;;;;;;;2.08;1.40;;;15.40;86.70;;;;;;4758970;29;20483;-86
2021/08/01 05:27:15;;;;;;;3.20;1.77;;;15.50;86.70;;;;;;4759826;29;20039;-85
2021/08/01 05:29:40;;;;;;;1.73;1.40;;;15.50;86.70;;;;;;4774633;29;20495;-87
2021/08/01 05:32:06;;;;;;;1.80;1.33;;;15.50;86.80;;;;;;4774862;29;20031;-85
2021/08/01 05:34:32;;;;;;;2.08;1.40;;;15.50;86.80;;;;;;4773234;29;20503;-86
2021/08/01 05:36:59;;;;;;;2.00;1.42;;;15.50;86.70;;;;;;4789720;29;20051;-86
2021/08/01 05:39:25;;;;;;;1.88;1.45;;;15.50;86.80;;;;;;4773784;29;20035;-86
2021/08/01 05:41:50;;;;;;;1.63;1.20;;;15.50;86.70;;;;;;4758810;29;20127;-87
2021/08/01 05:44:16;;;;;;;1.77;1.25;;;15.50;86.80;;;;;;4789585;29;20129;-87
2021/08/01 05:46:42;;;;;;;2.65;1.65;;;15.60;86.90;;;;;;4788986;29;20570;-87
2021/08/01 05:49:10;;;;;;;3.85;1.70;;;15.60;86.80;;;;;;4759931;29;20046;-88
2021/08/01 05:51:39;;;;;;;2.80;1.80;;;15.60;86.70;;;;;;4759890;29;20082;-86
2021/08/01 05:54:04;;;;;;;2.58;1.75;;;15.60;86.70;;;;;;4774474;29;20044;-87
2021/08/01 05:56:30;;;;;;;3.38;1.90;;;15.60;86.60;;;;;;4759227;29;20631;-86
2021/08/01 05:58:56;;;;;;;2.60;1.90;;;15.70;86.70;;;;;;4773883;29;20062;-87
2021/08/01 06:01:21;;;;;;;2.95;1.90;;;15.60;86.70;;;;;;4774210;29;20047;-86
2021/08/01 06:03:47;;;;;;;4.25;2.03;;;15.70;86.80;;;;;;4759166;29;20127;-87
2021/08/01 06:06:22;;;;;;;3.33;1.90;;;15.70;86.80;;;;;;4774543;29;20034;-88
2021/08/01 06:08:50;;;;;;;3.25;1.77;;;15.70;86.80;;;;;;4774393;29;20062;-87
2021/08/01 06:11:16;;;;;;;4.60;2.17;;;15.70;86.80;;;;;;4759583;29;20039;-86
2021/08/01 06:13:42;;;;;;;3.83;2.13;;;15.70;86.80;;;;;;4758656;29;20134;-88
2021/08/01 06:16:10;;;;;;;3.88;2.05;;;15.70;86.70;;;;;;4759518;29;20065;-87
2021/08/01 06:18:37;;;;;;;4.25;2.08;;;15.70;86.70;;;;;;4758167;29;20458;-88
2021/08/01 06:21:09;;;;;;;4.15;2.00;;;15.80;86.80;;;;;;4759119;29;20050;-87
2021/08/01 06:23:36;;;;;;;3.22;1.90;;;15.80;86.80;;;;;;4774387;29;20043;-88
2021/08/01 06:26:03;;;;;;;1.98;1.58;;;15.80;86.80;;;;;;4759409;29;20046;-87
2021/08/01 06:28:31;;;;;;;4.20;2.33;;;15.80;86.80;;;;;;4774466;29;20047;-88
2021/08/01 06:30:57;;;;;;;3.45;2.28;;;15.90;86.90;;;;;;4789858;29;20129;-87
2021/08/01 06:33:23;;;;;;;3.97;1.92;;;15.80;86.90;;;;;;4758004;29;20047;-88
2021/08/01 06:35:52;;;;;;;3.72;2.10;;;15.80;86.90;;;;;;4805025;29;20047;-86
2021/08/01 06:38:17;;;;;;;3.33;1.92;;;15.80;86.90;;;;;;4749750;30;20056;-89
2021/08/01 06:40:43;;;;;;;4.00;2.30;;;15.90;87.00;;;;;;4735400;30;20128;-87
2021/08/01 06:43:09;;;;;;;4.53;2.53;;;15.90;87.00;;;;;;4735634;30;20538;-86
2021/08/01 06:45:34;;;;;;;4.55;2.95;;;15.80;87.00;;;;;;4734686;30;20044;-85
2021/08/01 06:48:00;;;;;;;4.10;2.50;;;15.70;87.00;;;;;;4735370;30;20043;-88
2021/08/01 06:50:26;;;;;;;3.90;2.40;;;15.70;87.10;;;;;;4734723;30;20060;-88
2021/08/01 06:52:52;;;;;;;3.72;2.33;;;15.70;87.40;;;;;;4734478;30;20037;-87
2021/08/01 06:55:18;;;;;;;4.30;2.63;;;15.70;87.40;;;;;;4734785;30;20052;-84
2021/08/01 06:57:43;;;;;;;4.90;2.45;;;15.70;87.40;;;;;;4751229;30;20483;-86
2021/08/01 07:00:10;;;;;;;4.43;2.03;;;15.70;87.40;;;;;;4737748;30;20098;-88
2021/08/01 07:02:35;;;;;;;3.13;1.98;;;15.70;87.40;;;;;;4737374;30;20044;-88
2021/08/01 07:05:01;;;;;;;4.25;2.20;;;15.70;87.50;;;;;;4752520;30;20118;-87
2021/08/01 07:07:27;;;;;;;4.25;2.50;;;15.70;87.60;;;;;;4737608;30;20500;-87
2021/08/01 07:09:52;;;;;;;4.03;2.03;;;15.70;87.50;;;;;;4768227;29;20066;-86
2021/08/01 07:12:19;;;;;;;4.07;2.08;;;15.60;87.40;;;;;;4761029;29;20098;-88
2021/08/01 07:14:48;;;;;;;3.65;2.10;;;15.60;87.60;;;;;;4762058;29;20035;-86
2021/08/01 07:17:14;;;;;;;3.63;1.88;;;15.60;88.30;;;;;;4760504;29;20521;-87
2021/08/01 07:19:40;;;;;;;5.00;2.47;;;15.60;87.60;;;;;;4776697;29;20121;-86
2021/08/01 07:22:05;;;;;;;3.70;2.15;;;15.60;87.70;;;;;;4761116;29;20044;-86
2021/08/01 07:24:33;;;;;;;4.35;2.53;;;15.60;87.80;;;;;;4775293;29;20043;-87
2021/08/01 07:26:59;;;;;;;3.92;2.22;;;15.60;87.80;;;;;;4790396;29;20096;-88
2021/08/01 07:29:24;;;;;;;4.35;2.30;;;15.60;87.90;;;;;;4808006;29;20432;-84
2021/08/01 07:31:51;;;;;;;4.28;2.28;;;15.60;88.00;;;;;;4775135;29;20523;-85
2021/08/01 07:34:17;;;;;;;5.30;2.60;;;15.60;88.00;;;;;;4775033;29;20039;-83
2021/08/01 07:36:46;;;;;;;4.15;2.25;;;15.60;88.00;;;;;;4791137;29;20039;-83
2021/08/01 07:39:11;;;;;;;4.13;2.40;;;15.60;88.10;;;;;;4775926;29;20030;-85
2021/08/01 07:41:37;;;;;;;4.75;2.50;;;15.70;88.00;;;;;;4775331;29;20428;-85
2021/08/01 07:44:03;;;;;;;4.35;2.33;;;15.60;87.90;;;;;;4776738;29;20046;-85
2021/08/01 07:46:28;;;;;;;5.75;2.13;;;15.70;88.00;;;;;;4776131;29;20038;-85
2021/08/01 07:48:54;;;;;;;3.72;2.15;;;15.80;87.90;;;;;;4790252;29;20118;-84
2021/08/01 07:51:20;;;;;;;3.30;1.65;;;15.80;87.80;;;;;;4789954;29;20497;-84
2021/08/01 07:53:45;;;;;;;5.00;2.33;;;15.90;87.70;;;;;;4807081;29;20482;-84
2021/08/01 07:56:11;;;;;;;4.65;2.53;;;15.90;87.70;;;;;;4775301;29;20474;-84
2021/08/01 07:58:37;;;;;;;5.55;2.90;;;15.80;87.50;;;;;;4759946;29;20035;-85
2021/08/01 08:01:03;;;;;;;6.38;2.83;;;15.90;87.70;;;;;;4789365;29;20059;-84
2021/08/01 08:03:28;;;;;;;4.25;2.08;;;15.90;87.70;;;;;;4790548;29;20078;-84
2021/08/01 08:05:54;;;;;;;5.35;2.67;;;15.90;87.70;;;;;;4760139;29;20044;-86
2021/08/01 08:09:02;;;;;;;5.07;2.60;;;15.90;87.70;;;;;;4773455;29;20039;-85
2021/08/01 08:45:50;;;;;;;4.68;2.58;;;16.20;86.90;;;;;;4523643;31;20155;-83
2021/08/01 08:49:00;;;;;;;6.50;3.40;;;16.40;86.80;;;;;;4525603;31;20073;-84
2021/08/01 08:54:45;;;;;;;6.90;3.67;;;16.40;86.70;;;;;;4459940;32;20063;-81
2021/08/01 09:00:46;;;;;;;8.95;4.30;;;16.40;87.20;;;;;;4495087;31;20061;-83
2021/08/01 09:06:34;;;;;;;8.13;4.00;;;16.50;86.50;;;;;;4531079;31;20058;-86
2021/08/01 09:09:03;;;;;;;6.40;4.00;;;16.50;86.40;;;;;;4518719;31;20075;-86
2021/08/01 09:15:39;;;;;;;7.15;3.88;;;16.70;86.40;;;;;;4509374;31;20063;-86
2021/08/01 09:18:18;;;;;;;7.05;3.60;;;16.80;86.30;;;;;;4502201;31;20184;-87
2021/08/01 09:21:24;;;;;;;6.10;3.42;;;16.80;86.10;;;;;;4530275;31;20145;-86
2021/08/01 09:24:34;;;;;;;6.85;3.45;;;16.90;86.00;;;;;;4523777;31;20202;-86
2021/08/01 09:27:06;;;;;;;6.45;3.67;;;16.90;85.90;;;;;;4507828;31;20062;-85
2021/08/01 09:33:40;;;;;;;5.57;3.20;;;16.90;86.00;;;;;;4545814;31;20478;-84
2021/08/01 09:44:38;;;;;;;4.88;2.83;;;17.00;85.90;;;;;;4471284;31;20179;-87
2021/08/01 09:47:04;;;;;;;5.93;3.15;;;17.00;85.90;;;;;;4496842;31;20564;-88
2021/08/01 09:49:33;;;;;;;6.03;3.60;;;17.10;85.80;;;;;;4498298;31;20082;-85
2021/08/01 09:58:11;;;;;;;5.00;2.95;;;17.60;85.60;;;;;;4590237;31;20148;-82
2021/08/01 10:00:58;;;;;;;6.05;3.60;;;17.80;84.90;;;;;;4617395;31;20055;-81
2021/08/01 10:03:36;;;;;;;6.63;3.53;;;18.20;84.20;;;;;;4663955;30;20038;-82
2021/08/01 10:06:07;;;;;;;5.88;3.63;;;18.30;83.80;;;;;;4701348;30;20112;-80
2021/08/01 10:08:39;;;;;;;6.20;3.78;;;18.40;83.60;;;;;;4702294;30;20038;-80
2021/08/01 10:11:10;;;;;;;8.23;4.63;;;18.40;83.40;;;;;;4677473;30;20070;-80
2021/08/01 10:13:37;;;;;;;7.00;4.18;;;18.50;83.60;;;;;;4715435;30;20048;-83
2021/08/01 10:16:04;;;;;;;6.38;4.05;;;18.50;83.50;;;;;;4707677;30;20041;-85
2021/08/01 10:18:29;;;;;;;6.93;3.95;;;18.70;83.20;;;;;;4722629;30;20069;-83
2021/08/01 10:20:56;;;;;;;6.55;3.95;;;18.90;83.10;;;;;;4780696;29;20506;-82
2021/08/01 10:23:25;;;;;;;6.18;3.70;;;19.10;82.70;;;;;;4790461;29;20034;-87
2021/08/01 10:25:52;;;;;;;6.30;3.38;;;19.20;82.70;;;;;;4774989;29;20054;-87
2021/08/01 10:28:21;;;;;;;5.30;3.40;;;19.30;82.50;;;;;;4774394;29;20046;-78
2021/08/01 10:30:51;;;;;;;6.15;3.22;;;19.30;82.40;;;;;;4804761;29;20085;-86
2021/08/01 10:33:22;;;;;;;5.78;3.42;;;19.60;82.40;;;;;;4776545;29;20070;-89
2021/08/01 10:36:00;;;;;;;5.55;3.70;;;19.50;82.10;;;;;;4733008;30;20508;-88
2021/08/01 10:38:30;;;;;;;5.38;2.90;;;19.50;82.10;;;;;;4718620;30;20041;-88
2021/08/01 10:41:00;;;;;;;5.70;3.22;;;19.50;82.20;;;;;;4703536;30;20056;-85
2021/08/01 10:43:29;;;;;;;6.15;3.63;;;19.50;82.20;;;;;;4718309;30;20080;-84
2021/08/01 10:45:56;;;;;;;7.50;4.45;;;19.50;82.30;;;;;;4717795;30;20049;-86
2021/08/01 10:48:25;;;;;;;6.13;3.30;;;19.30;82.40;;;;;;4704256;30;20047;-88
2021/08/01 10:50:54;;;;;;;5.82;3.70;;;19.00;82.90;;;;;;4667570;30;20058;-88
2021/08/01 10:53:24;;;;;;;4.68;2.97;;;18.90;83.70;;;;;;4668841;30;20104;-87
2021/08/01 10:56:29;;;;;;;5.43;3.00;;;18.70;84.10;;;;;;4652415;30;20147;-88
2021/08/01 10:58:55;;;;;;;4.22;2.58;;;18.70;84.70;;;;;;4652904;30;20505;-85
2021/08/01 11:01:20;;;;;;;4.85;2.80;;;18.60;84.80;;;;;;4681590;30;20116;-84
2021/08/01 11:03:46;;;;;;;4.63;2.75;;;18.60;84.90;;;;;;4654466;30;20053;-80
2021/08/01 11:06:46;;;;;;;4.07;2.30;;;18.60;85.10;;;;;;4686760;30;20440;-83
2021/08/01 11:09:12;;;;;;;3.65;2.40;;;18.50;85.20;;;;;;4753366;30;20044;-84
2021/08/01 11:11:39;;;;;;;3.42;2.00;;;18.50;85.30;;;;;;4724377;30;20044;-84
2021/08/01 11:14:04;;;;;;;2.30;1.80;;;18.50;85.50;;;;;;4751323;30;20060;-83
2021/08/01 11:16:48;;;;;;;2.20;1.70;;;18.50;85.60;;;;;;4752346;30;20055;-82
2021/08/01 11:19:34;;;;;;;2.72;1.70;;;18.40;85.70;;;;;;4740528;30;20041;-83
2021/08/01 11:22:00;;;;;;;2.83;1.65;;;18.40;85.90;;;;;;4735020;30;20044;-83
2021/08/01 11:24:26;;;;;;;2.15;1.48;;;18.40;85.90;;;;;;4740937;30;20046;-84
2021/08/01 11:27:09;;;;;;;3.08;1.50;;;18.40;85.90;;;;;;4750808;30;20577;-83
2021/08/01 11:30:03;;;;;;;1.77;1.30;;;18.50;85.90;;;;;;4775738;29;20093;-83
2021/08/01 11:32:48;;;;;;;2.00;1.33;;;18.50;85.70;;;;;;4787563;29;20040;-83
2021/08/01 11:35:15;;;;;;;2.00;1.35;;;18.70;85.60;;;;;;4776160;29;20042;-82
2021/08/01 11:37:41;;;;;;;2.15;1.30;;;18.80;85.40;;;;;;4787847;29;20118;-83
2021/08/01 11:40:08;;;;;;;1.75;1.40;;;18.90;85.10;;;;;;4773431;29;20142;-83
2021/08/01 11:42:34;;;;;;;1.48;1.20;;;19.10;85.00;;;;;;4789589;29;20047;-82
2021/08/01 11:45:01;;;;;;;1.52;1.20;;;19.20;84.60;;;;;;4807322;29;20092;-82
2021/08/01 11:47:28;;;;;;;1.60;1.20;;;19.30;84.40;;;;;;4791675;29;20058;-82
2021/08/01 11:49:54;;;;;;;1.23;0.90;;;19.30;84.10;;;;;;4807319;29;20154;-81
2021/08/01 11:52:45;;;;;;;1.35;1.10;;;19.30;84.00;;;;;;4790825;29;20031;-81
2021/08/01 11:55:16;;;;;;;1.65;1.17;;;19.30;84.20;;;;;;4776641;29;20074;-81
2021/08/01 11:57:44;;;;;;;1.95;1.27;;;19.30;84.20;;;;;;4790687;29;20072;-81
2021/08/01 12:00:11;;;;;;;3.92;2.28;;;19.30;84.40;;;;;;4807840;29;20058;-82
2021/08/01 12:02:38;;;;;;;2.88;1.70;;;19.10;84.40;;;;;;4777144;29;20051;-82
2021/08/01 12:05:05;;;;;;;3.13;1.85;;;19.00;84.70;;;;;;4793683;29;20046;-82
2021/08/01 12:07:40;;;;;;;3.05;1.75;;;19.00;85.00;;;;;;4793438;29;20067;-81
2021/08/01 12:10:18;;;;;;;2.65;1.80;;;18.90;85.20;;;;;;4795849;29;20051;-83
2021/08/01 12:12:44;;;;;;;3.60;2.08;;;18.90;85.20;;;;;;4781124;29;20477;-81
2021/08/01 12:15:10;;;;;;;3.45;1.80;;;18.90;85.20;;;;;;4813000;29;20034;-81
2021/08/01 12:17:37;;;;;;;2.67;1.75;;;18.90;85.30;;;;;;4779588;29;20391;-82
2021/08/01 12:20:04;;;;;;;2.53;1.73;;;19.10;85.40;;;;;;4810102;29;20511;-81
2021/08/01 12:22:30;;;;;;;1.80;1.42;;;19.40;84.80;;;;;;4777991;29;20376;-82
2021/08/01 12:24:59;;;;;;;2.17;1.60;;;19.60;84.10;;;;;;4792494;29;20058;-81
2021/08/01 12:27:28;;;;;;;2.92;1.63;;;19.70;83.60;;;;;;4791071;29;20574;-81
2021/08/01 12:29:57;;;;;;;2.20;1.55;;;19.60;83.50;;;;;;4776617;29;20063;-80
2021/08/01 12:32:33;;;;;;;1.85;1.45;;;19.70;83.70;;;;;;4791160;29;20449;-81
2021/08/01 12:35:11;;;;;;;1.83;1.38;;;19.70;83.90;;;;;;4808172;29;20035;-81
2021/08/01 12:37:48;;;;;;;1.45;1.20;;;19.60;84.00;;;;;;4793696;29;20483;-81
2021/08/01 12:40:33;;;;;;;1.70;1.30;;;19.70;84.00;;;;;;4778000;29;20031;-82
2021/08/01 12:43:05;;;;;;;1.30;1.00;;;19.60;83.90;;;;;;4792613;29;20070;-80
2021/08/01 12:45:35;;;;;;;1.92;1.30;;;19.60;84.10;;;;;;4793687;29;20047;-81
2021/08/01 12:48:10;;;;;;;1.17;1.08;;;19.50;84.20;;;;;;4810155;29;20118;-80
2021/08/01 12:50:41;;;;;;;2.03;1.23;;;19.50;84.30;;;;;;4777533;29;20498;-81
2021/08/01 12:53:07;;;;;;;0.93;0.85;;;19.50;84.40;;;;;;4793103;29;20521;-84
2021/08/01 12:55:33;;;;;;;1.30;1.00;;;19.40;84.40;;;;;;4791967;29;20487;-82
2021/08/01 12:58:01;;;;;;;1.20;0.93;;;19.30;84.30;;;;;;4809152;29;20088;-81
2021/08/01 13:00:29;;;;;;;0.90;0.90;;;19.30;84.60;;;;;;4793747;29;20115;-81
2021/08/01 13:02:58;;;;;;;0.80;0.80;;;19.20;84.80;;;;;;4810506;29;20031;-81
2021/08/01 13:05:26;;;;;;;0.80;0.80;;;19.20;84.90;;;;;;4809392;29;20510;-81
2021/08/01 13:07:52;;;;;;;0.60;0.60;;;19.20;84.80;;;;;;4809232;29;20051;-81
2021/08/01 13:10:18;;;;;;;0.85;0.77;;;19.20;84.70;;;;;;4791609;29;20062;-81
2021/08/01 13:13:16;;;;;;;0.65;0.65;;;19.20;84.80;;;;;;4808965;29;20043;-81
2021/08/01 13:16:00;;;;;;;1.48;0.90;;;19.20;84.80;;;;;;4809889;29;20110;-81
2021/08/01 13:18:31;;;;;;;1.88;0.98;;;19.10;84.80;;;;;;4776395;29;20046;-81
2021/08/01 13:20:59;;;;;;;0.65;0.65;;;19.20;85.00;;;;;;4791495;29;20050;-82
2021/08/01 13:23:42;;;;;;;0.45;0.45;;;19.10;85.00;;;;;;4777452;29;20039;-81
2021/08/01 13:26:26;;;;;;;0.88;0.70;;;19.10;85.00;;;;;;4808265;29;20047;-80
2021/08/01 13:29:19;;;;;;;0.65;0.60;;;19.10;84.90;;;;;;4808420;29;20047;-81
2021/08/01 13:31:46;;;;;;;0.70;0.70;;;19.10;84.90;;;;;;4764011;29;20046;-81
2021/08/01 13:34:15;;;;;;;0.60;0.60;;;19.20;84.80;;;;;;4791593;29;20028;-81
2021/08/01 13:36:54;;;;;;;0.85;0.80;;;19.30;84.70;;;;;;4791780;29;20046;-81
2021/08/01 13:39:23;;;;;;;0.50;0.50;;;19.40;84.40;;;;;;4808850;29;20039;-82
2021/08/01 13:42:05;;;;;;;0.65;0.50;;;19.40;84.10;;;;;;4792942;29;20070;-81
2021/08/01 13:44:33;;;;;;;0.60;0.60;;;19.50;84.00;;;;;;4809927;29;20130;-80
2021/08/01 13:47:17;;;;;;;0.50;0.50;;;19.60;83.90;;;;;;4809235;29;20043;-81
2021/08/01 13:49:47;;;;;;;0.50;0.50;;;19.70;83.70;;;;;;4808743;29;20046;-81
2021/08/01 13:52:14;;;;;;;0.43;0.43;;;19.80;83.60;;;;;;4776945;29;20039;-81
2021/08/01 13:54:42;;;;;;;0.70;0.70;;;19.80;83.30;;;;;;4808524;29;20192;-81
2021/08/01 13:57:09;;;;;;;0.65;0.60;;;19.80;83.10;;;;;;4809283;29;20050;-81
2021/08/01 13:59:36;;;;;;;0.88;0.77;;;19.90;83.20;;;;;;4792367;29;20046;-82
2021/08/01 14:02:02;;;;;;;0.40;0.40;;;19.80;83.20;;;;;;4792004;29;20050;-81
2021/08/01 14:04:30;;;;;;;0.70;0.70;;;19.80;83.10;;;;;;4791480;29;20046;-82
2021/08/01 14:06:56;;;;;;;0.60;0.60;;;19.80;83.10;;;;;;4807684;29;20096;-82
2021/08/01 14:09:22;;;;;;;0.70;0.70;;;19.90;83.10;;;;;;4792174;29;20510;-82